createdAt,value
2022-11-04T00:01:50.112Z,10.13
2022-11-04T00:04:20.167Z,10.10
2022-11-04T00:06:48.818Z,10.17
2022-11-04T00:09:23.202Z,9.57
2022-11-04T00:12:09.703Z,9.70
2022-11-04T00:14:37.758Z,10.40
2022-11-04T00:17:24.399Z,9.67
2022-11-04T00:20:12.975Z,9.00
2022-11-04T00:23:00.768Z,9.33
2022-11-04T00:25:47.134Z,9.70
2022-11-04T00:28:38.449Z,9.40
2022-11-04T00:31:27.145Z,9.80
2022-11-04T00:33:57.586Z,10.03
2022-11-04T00:36:26.105Z,9.83
2022-11-04T00:38:53.988Z,9.43
2022-11-04T00:41:28.217Z,9.90
2022-11-04T00:44:05.093Z,9.60
2022-11-04T00:46:34.827Z,9.90
2022-11-04T00:49:02.448Z,9.73
2022-11-04T00:51:30.092Z,9.30
2022-11-04T00:54:00.728Z,9.47
2022-11-04T00:56:28.190Z,9.77
2022-11-04T00:58:55.789Z,10.00
2022-11-04T01:01:23.273Z,9.23
2022-11-04T01:03:53.595Z,9.77
2022-11-04T01:06:23.699Z,9.17
2022-11-04T01:09:01.112Z,9.60
2022-11-04T01:11:29.713Z,9.03
2022-11-04T01:13:58.505Z,9.13
2022-11-04T01:18:59.032Z,8.70
2022-11-04T01:21:26.503Z,9.07
2022-11-04T01:23:53.949Z,9.27
2022-11-04T01:26:24.543Z,9.13
2022-11-04T01:28:54.947Z,9.13
2022-11-04T01:31:26.765Z,8.93
2022-11-04T01:33:55.828Z,9.33
2022-11-04T01:36:24.459Z,9.57
2022-11-04T01:38:52.528Z,8.33
2022-11-04T01:41:24.368Z,9.00
2022-11-04T01:44:41.658Z,8.83
2022-11-04T01:47:31.367Z,8.60
2022-11-04T01:50:05.833Z,8.83
2022-11-04T01:53:06.494Z,9.13
2022-11-04T01:55:36.633Z,8.60
2022-11-04T01:58:11.692Z,9.33
2022-11-04T02:00:40.629Z,8.97
2022-11-04T02:03:18.668Z,8.93
2022-11-04T02:05:48.077Z,9.23
2022-11-04T02:08:18.474Z,9.20
2022-11-04T02:11:35.713Z,9.13
2022-11-04T02:14:03.279Z,8.47
2022-11-04T02:16:47.596Z,8.40
2022-11-04T02:19:47.651Z,8.47
2022-11-04T02:22:20.858Z,8.30
2022-11-04T02:25:04.187Z,7.73
2022-11-04T02:28:00.993Z,7.93
2022-11-04T02:30:37.384Z,7.77
2022-11-04T02:33:15.526Z,8.50
2022-11-04T02:36:11.099Z,8.53
2022-11-04T02:39:06.527Z,8.00
2022-11-04T02:41:57.433Z,8.20
2022-11-04T02:44:33.249Z,7.93
2022-11-04T02:47:09.051Z,7.53
2022-11-04T02:49:45.903Z,8.33
2022-11-04T02:52:20.282Z,8.20
2022-11-04T02:55:01.448Z,8.60
2022-11-04T02:57:36.598Z,8.40
2022-11-04T03:00:10.086Z,7.80
2022-11-04T03:02:43.894Z,7.90
2022-11-04T03:05:29.026Z,7.37
2022-11-04T03:08:01.920Z,8.10
2022-11-04T03:10:38.788Z,7.67
2022-11-04T03:13:31.573Z,8.20
2022-11-04T03:16:04.128Z,7.07
2022-11-04T03:18:42.752Z,7.43
2022-11-04T03:21:13.125Z,7.50
2022-11-04T03:23:41.094Z,7.27
2022-11-04T03:26:27.184Z,6.70
2022-11-04T03:29:32.434Z,7.60
2022-11-04T03:32:31.344Z,7.70
2022-11-04T03:34:58.954Z,7.47
2022-11-04T03:37:26.716Z,7.83
2022-11-04T03:39:54.950Z,7.93
2022-11-04T03:42:23.640Z,7.70
2022-11-04T03:44:54.545Z,8.03
2022-11-04T03:47:26.187Z,7.83
2022-11-04T03:50:13.526Z,8.00
2022-11-04T03:52:41.090Z,8.50
2022-11-04T03:55:10.922Z,7.90
2022-11-04T03:58:12.611Z,8.40
2022-11-04T04:00:53.153Z,7.73
2022-11-04T04:03:32.669Z,7.90
2022-11-04T04:06:25.667Z,8.10
2022-11-04T04:08:57.594Z,8.33
2022-11-04T04:12:16.180Z,7.83
2022-11-04T04:15:08.175Z,9.07
2022-11-04T04:17:51.636Z,8.37
2022-11-04T04:20:22.350Z,8.13
2022-11-04T04:23:25.858Z,8.37
2022-11-04T04:26:14.039Z,8.10
2022-11-04T04:28:43.062Z,8.43
2022-11-04T04:31:12.903Z,8.03
2022-11-04T04:33:40.373Z,8.50
2022-11-04T04:36:10.383Z,7.93
2022-11-04T04:39:01.757Z,8.93
2022-11-04T04:41:49.456Z,8.07
2022-11-04T04:44:46.653Z,9.33
2022-11-04T04:47:23.003Z,8.43
2022-11-04T04:49:51.924Z,8.60
2022-11-04T04:52:20.653Z,8.63
2022-11-04T04:54:48.033Z,9.27
2022-11-04T04:57:15.566Z,9.00
2022-11-04T04:59:43.043Z,8.90
2022-11-04T05:02:10.661Z,9.30
2022-11-04T05:04:38.277Z,10.03
2022-11-04T05:07:07.278Z,9.80
2022-11-04T05:09:34.770Z,9.43
2022-11-04T05:12:02.273Z,10.13
2022-11-04T05:14:30.639Z,8.93
2022-11-04T05:16:58.390Z,9.37
2022-11-04T05:19:26.010Z,10.07
2022-11-04T05:21:53.416Z,8.97
2022-11-04T05:24:20.936Z,9.87
2022-11-04T05:26:48.442Z,10.07
2022-11-04T05:31:48.272Z,10.27
2022-11-04T05:34:15.723Z,10.30
2022-11-04T05:36:43.171Z,9.17
2022-11-04T05:39:14.136Z,9.50
2022-11-04T05:41:41.731Z,10.30
2022-11-04T05:44:10.033Z,10.20
2022-11-04T05:46:37.482Z,10.30
2022-11-04T05:49:05.333Z,10.20
2022-11-04T05:51:33.977Z,10.53
2022-11-04T05:54:01.986Z,11.17
2022-11-04T05:56:29.444Z,10.27
2022-11-04T05:58:56.945Z,10.30
2022-11-04T06:01:27.453Z,11.00
2022-11-04T06:03:55.712Z,11.13
2022-11-04T06:06:25.204Z,10.40
2022-11-04T06:08:53.275Z,10.87
2022-11-04T06:11:22.235Z,10.90
2022-11-04T06:13:50.666Z,11.50
2022-11-04T06:16:18.491Z,11.23
2022-11-04T06:18:45.936Z,11.50
2022-11-04T06:21:16.367Z,10.47
2022-11-04T06:23:45.127Z,10.57
2022-11-04T06:26:15.078Z,10.77
2022-11-04T06:28:42.619Z,10.80
2022-11-04T06:31:12.839Z,10.80
2022-11-04T06:33:40.555Z,11.33
2022-11-04T06:36:11.052Z,11.70
2022-11-04T06:38:39.401Z,11.67
2022-11-04T06:41:09.391Z,11.83
2022-11-04T06:43:36.811Z,11.57
2022-11-04T06:46:05.389Z,11.20
2022-11-04T06:48:33.081Z,11.33
2022-11-04T06:51:01.688Z,11.63
2022-11-04T06:53:30.089Z,11.93
2022-11-04T06:56:04.330Z,11.40
2022-11-04T06:58:31.738Z,10.97
2022-11-04T07:00:59.225Z,10.47
2022-11-04T07:03:26.674Z,11.40
2022-11-04T07:05:54.338Z,11.40
2022-11-04T07:08:21.862Z,11.97
2022-11-04T07:10:49.327Z,10.83
2022-11-04T07:13:17.814Z,10.90
2022-11-04T07:15:45.256Z,10.80
2022-11-04T07:18:12.699Z,10.50
2022-11-04T07:20:40.487Z,10.43
2022-11-04T07:23:08.632Z,10.50
2022-11-04T07:25:36.062Z,10.33
2022-11-04T07:28:03.503Z,10.60
2022-11-04T07:30:30.900Z,10.97
2022-11-04T07:32:58.618Z,10.87
2022-11-04T07:35:26.018Z,10.00
2022-11-04T07:37:55.536Z,10.10
2022-11-04T07:40:22.970Z,9.03
2022-11-04T07:42:50.425Z,9.63
2022-11-04T07:45:18.042Z,10.13
2022-11-04T07:47:45.761Z,9.23
2022-11-04T07:50:13.816Z,8.63
2022-11-04T07:52:41.285Z,9.07
2022-11-04T07:55:10.212Z,7.30
2022-11-04T07:57:37.803Z,6.93
2022-11-04T08:00:08.589Z,7.50
2022-11-04T08:02:36.771Z,7.00
2022-11-04T08:05:06.481Z,7.90
2022-11-04T08:07:33.850Z,7.20
2022-11-04T08:10:01.261Z,7.70
2022-11-04T08:12:28.666Z,7.23
2022-11-04T08:14:56.033Z,7.63
2022-11-04T08:17:23.427Z,7.53
2022-11-04T08:19:50.871Z,7.53
2022-11-04T08:22:18.330Z,7.67
2022-11-04T08:24:49.297Z,8.40
2022-11-04T08:27:16.740Z,8.13
2022-11-04T08:29:44.222Z,7.90
2022-11-04T08:32:11.753Z,7.70
2022-11-04T08:34:40.222Z,8.20
2022-11-04T08:37:07.654Z,8.27
2022-11-04T08:39:35.190Z,8.40
2022-11-04T08:42:02.658Z,8.73
2022-11-04T08:44:30.126Z,7.90
2022-11-04T08:46:57.554Z,8.07
2022-11-04T08:49:24.935Z,7.97
2022-11-04T08:51:59.827Z,8.47
2022-11-04T08:54:27.891Z,9.43
2022-11-04T08:56:55.904Z,9.20
2022-11-04T08:59:25.206Z,9.00
2022-11-04T09:01:52.989Z,8.00
2022-11-04T09:04:20.511Z,8.13
2022-11-04T09:06:48.711Z,7.90
2022-11-04T09:09:17.371Z,8.70
2022-11-04T09:11:46.890Z,8.20
2022-11-04T09:14:15.030Z,8.03
2022-11-04T09:16:42.718Z,7.50
2022-11-04T09:19:10.327Z,7.57
2022-11-04T09:21:37.843Z,8.70
2022-11-04T09:24:07.547Z,7.43
2022-11-04T09:26:35.398Z,8.20
2022-11-04T09:29:02.939Z,9.00
2022-11-04T09:31:31.960Z,8.60
2022-11-04T09:33:59.478Z,8.70
2022-11-04T09:36:29.862Z,10.23
2022-11-04T09:38:57.438Z,10.03
2022-11-04T09:42:06.379Z,8.87
2022-11-04T09:45:29.320Z,9.60
2022-11-04T09:47:51.551Z,10.07
2022-11-04T09:50:31.337Z,9.17
2022-11-04T09:53:19.991Z,11.13
2022-11-04T09:56:02.128Z,9.93
2022-11-04T09:58:37.839Z,9.50
2022-11-04T10:01:18.708Z,9.80
2022-11-04T10:04:32.896Z,9.10
2022-11-04T10:07:44.984Z,9.03
2022-11-04T10:10:58.909Z,9.13
2022-11-04T10:14:00.243Z,10.00
2022-11-04T10:16:56.480Z,10.53
2022-11-04T10:19:26.407Z,9.87
2022-11-04T10:22:22.095Z,9.73
2022-11-04T10:25:14.577Z,10.30
2022-11-04T10:27:48.680Z,11.73
2022-11-04T10:30:21.456Z,10.90
2022-11-04T10:33:11.831Z,9.93
2022-11-04T10:35:48.919Z,9.80
2022-11-04T10:38:52.762Z,9.77
2022-11-04T10:41:38.554Z,8.63
2022-11-04T10:44:20.915Z,9.77
2022-11-04T10:47:22.333Z,10.23
2022-11-04T10:50:28.442Z,9.40
2022-11-04T10:53:23.236Z,9.43
2022-11-04T10:56:36.472Z,9.53
2022-11-04T10:59:29.126Z,11.63
2022-11-04T11:01:58.815Z,9.57
2022-11-04T11:04:36.311Z,9.40
2022-11-04T11:07:07.297Z,9.77
2022-11-04T11:10:01.535Z,10.37
2022-11-04T11:12:50.776Z,9.67
2022-11-04T11:15:40.276Z,9.33
2022-11-04T11:18:21.956Z,9.60
2022-11-04T11:21:13.581Z,9.57
2022-11-04T11:23:49.392Z,9.90
2022-11-04T11:26:22.438Z,9.60
2022-11-04T11:29:02.493Z,9.53
2022-11-04T11:31:39.324Z,9.40
2022-11-04T11:34:26.833Z,9.43
2022-11-04T11:36:57.110Z,10.27
2022-11-04T11:39:29.321Z,10.00
2022-11-04T11:42:06.694Z,9.00
2022-11-04T11:44:50.644Z,9.70
2022-11-04T11:47:38.132Z,9.97
2022-11-04T11:50:14.586Z,10.40
2022-11-04T11:52:47.508Z,9.67
2022-11-04T11:55:29.399Z,9.87
2022-11-04T12:01:26.858Z,9.53
2022-11-04T12:10:07.301Z,8.53
2022-11-04T12:13:14.495Z,9.03
2022-11-04T12:16:21.255Z,9.17
2022-11-04T12:19:26.045Z,11.03
2022-11-04T12:22:18.788Z,10.70
2022-11-04T12:24:56.529Z,9.83
2022-11-04T12:27:44.392Z,10.00
2022-11-04T12:30:17.312Z,9.27
2022-11-04T12:32:57.568Z,9.80
2022-11-04T12:36:09.013Z,9.67
2022-11-04T12:38:59.997Z,9.47
2022-11-04T12:42:22.969Z,8.70
2022-11-04T12:45:21.419Z,8.57
2022-11-04T12:47:49.509Z,9.10
2022-11-04T12:50:53.254Z,11.67
2022-11-04T12:53:45.226Z,14.20
2022-11-04T12:56:18.343Z,9.70
2022-11-04T12:59:36.201Z,10.10
2022-11-04T13:02:31.445Z,10.27
2022-11-04T13:05:23.212Z,11.67
2022-11-04T13:08:18.799Z,30.10
2022-11-04T13:11:24.490Z,22.17
2022-11-04T13:14:01.867Z,11.43
2022-11-04T13:16:35.850Z,12.23
2022-11-04T13:19:06.925Z,10.80
2022-11-04T13:21:37.894Z,11.13
2022-11-04T13:24:30.772Z,10.83
2022-11-04T13:27:33.345Z,11.70
2022-11-04T13:30:35.715Z,11.57
2022-11-04T13:33:36.089Z,11.70
2022-11-04T13:36:16.261Z,15.03
2022-11-04T13:38:58.740Z,18.40
2022-11-04T13:41:39.073Z,18.17
2022-11-04T13:44:36.397Z,19.27
2022-11-04T13:47:19.220Z,16.07
2022-11-04T13:49:57.419Z,17.93
2022-11-04T13:52:36.404Z,16.53
2022-11-04T13:55:08.767Z,11.70
2022-11-04T13:58:00.950Z,19.97
2022-11-04T14:00:30.983Z,30.43
2022-11-04T14:03:27.200Z,23.30
2022-11-04T14:06:00.512Z,58.60
2022-11-04T14:08:28.169Z,24.77
2022-11-04T14:11:00.548Z,27.67
2022-11-04T14:13:31.691Z,18.50
2022-11-04T14:16:14.106Z,13.30
2022-11-04T14:18:47.979Z,15.43
2022-11-04T14:21:24.672Z,13.63
2022-11-04T14:24:00.397Z,13.50
2022-11-04T14:26:48.717Z,19.17
2022-11-04T14:29:19.520Z,17.03
2022-11-04T14:31:55.974Z,12.50
2022-11-04T14:34:36.750Z,16.73
2022-11-04T14:37:19.998Z,20.97
2022-11-04T14:39:57.725Z,25.93
2022-11-04T14:42:53.017Z,22.47
2022-11-04T14:45:29.411Z,17.47
2022-11-04T14:48:26.535Z,29.27
2022-11-04T14:50:57.041Z,25.53
2022-11-04T14:53:32.602Z,32.30
2022-11-04T14:56:24.475Z,25.77
2022-11-04T14:59:06.498Z,23.43
2022-11-04T15:01:43.520Z,17.90
2022-11-04T15:04:32.287Z,18.63
2022-11-04T15:07:03.007Z,21.40
2022-11-04T15:09:42.375Z,33.23
2022-11-04T15:12:28.527Z,17.33
2022-11-04T15:14:57.274Z,17.93
2022-11-04T15:17:29.836Z,20.13
2022-11-04T15:20:00.987Z,26.87
2022-11-04T15:22:30.681Z,22.20
2022-11-04T15:25:03.622Z,25.93
2022-11-04T15:27:31.140Z,24.23
2022-11-04T15:30:03.031Z,25.43
2022-11-04T15:32:30.905Z,22.23
2022-11-04T15:34:59.721Z,21.73
2022-11-04T15:37:29.137Z,20.30
2022-11-04T15:39:58.572Z,20.33
2022-11-04T15:42:37.120Z,19.30
2022-11-04T15:45:22.958Z,21.23
2022-11-04T15:48:22.723Z,18.83
2022-11-04T15:51:23.744Z,21.30
2022-11-04T15:53:57.799Z,54.53
2022-11-04T15:56:30.651Z,38.93
2022-11-04T15:59:00.131Z,25.07
2022-11-04T16:01:29.498Z,29.43
2022-11-04T16:03:59.783Z,26.03
2022-11-04T16:06:43.248Z,27.33
2022-11-04T16:09:11.543Z,34.27
2022-11-04T16:11:39.078Z,28.97
2022-11-04T16:14:29.407Z,29.43
2022-11-04T16:16:56.832Z,29.53
2022-11-04T16:19:28.818Z,25.07
2022-11-04T16:22:05.468Z,26.47
2022-11-04T16:24:35.426Z,22.53
2022-11-04T16:27:03.022Z,21.07
2022-11-04T16:29:34.671Z,17.30
2022-11-04T16:32:28.540Z,17.50
2022-11-04T16:35:03.304Z,17.30
2022-11-04T16:37:31.896Z,19.53
2022-11-04T16:39:59.269Z,20.77
2022-11-04T16:42:26.722Z,21.30
2022-11-04T16:45:01.882Z,27.23
2022-11-04T16:47:31.051Z,25.97
2022-11-04T16:50:02.563Z,28.47
2022-11-04T16:52:31.350Z,30.03
2022-11-04T16:54:58.768Z,33.97
2022-11-04T16:57:26.307Z,35.63
2022-11-04T16:59:54.775Z,35.80
2022-11-04T17:02:37.749Z,34.83
2022-11-04T17:05:06.120Z,38.03
2022-11-04T17:07:51.473Z,36.50
2022-11-04T17:10:26.711Z,41.37
2022-11-04T17:12:54.188Z,43.90
2022-11-04T17:15:21.947Z,41.10
2022-11-04T17:17:50.019Z,33.80
2022-11-04T17:20:18.544Z,40.97
2022-11-04T17:22:47.421Z,27.87
2022-11-04T17:25:25.127Z,31.33
2022-11-04T17:27:52.510Z,50.70
2022-11-04T17:30:22.096Z,59.03
2022-11-04T17:32:50.451Z,45.73
2022-11-04T17:35:18.564Z,49.13
2022-11-04T17:37:46.241Z,58.63
2022-11-04T17:40:18.683Z,50.50
2022-11-04T17:43:10.379Z,39.53
2022-11-04T17:45:41.988Z,41.67
2022-11-04T17:48:10.389Z,40.03
2022-11-04T17:50:40.028Z,38.33
2022-11-04T17:53:08.366Z,39.17
2022-11-04T17:55:40.736Z,38.10
2022-11-04T17:58:08.786Z,37.23
2022-11-04T18:00:36.201Z,37.03
2022-11-04T18:03:03.623Z,37.10
2022-11-04T18:05:30.989Z,36.37
2022-11-04T18:07:58.719Z,36.40
2022-11-04T18:10:26.156Z,33.70
2022-11-04T18:12:53.636Z,38.43
2022-11-04T18:15:21.104Z,38.20
2022-11-04T18:17:50.298Z,37.63
2022-11-04T18:20:17.763Z,28.93
2022-11-04T18:22:45.646Z,25.73
2022-11-04T18:25:13.350Z,24.17
2022-11-04T18:27:40.795Z,22.77
2022-11-04T18:30:09.071Z,24.97
2022-11-04T18:32:36.501Z,23.93
2022-11-04T18:35:04.296Z,20.87
2022-11-04T18:37:31.956Z,20.93
2022-11-04T18:39:59.369Z,20.07
2022-11-04T18:42:26.758Z,22.17
2022-11-04T18:44:54.887Z,21.10
2022-11-04T18:47:23.973Z,21.30
2022-11-04T18:49:51.612Z,22.50
2022-11-04T18:52:19.067Z,29.33
2022-11-04T18:54:46.490Z,25.90
2022-11-04T18:57:13.976Z,25.20
2022-11-04T18:59:41.395Z,25.27
2022-11-04T19:02:16.758Z,24.70
2022-11-04T19:04:44.278Z,25.80
2022-11-04T19:07:11.735Z,25.53
2022-11-04T19:09:46.820Z,23.67
2022-11-04T19:12:34.520Z,24.07
2022-11-04T19:15:04.231Z,22.20
2022-11-04T19:17:32.056Z,21.37
2022-11-04T19:19:59.539Z,22.43
2022-11-04T19:22:26.958Z,24.13
2022-11-04T19:24:54.676Z,23.00
2022-11-04T19:27:25.058Z,22.37
2022-11-04T19:29:52.983Z,21.53
2022-11-04T19:32:20.386Z,22.40
2022-11-04T19:34:47.949Z,20.93
2022-11-04T19:37:15.690Z,21.73
2022-11-04T19:39:43.307Z,23.17
2022-11-04T19:42:30.634Z,21.97
2022-11-04T19:44:58.128Z,23.23
2022-11-04T19:47:25.529Z,22.87
2022-11-04T19:49:52.928Z,22.57
2022-11-04T19:52:20.600Z,23.17
2022-11-04T19:54:48.047Z,22.50
2022-11-04T19:57:15.689Z,23.93
2022-11-04T19:59:43.105Z,24.43
2022-11-04T20:02:15.319Z,23.90
2022-11-04T20:04:43.019Z,22.77
2022-11-04T20:07:10.465Z,27.07
2022-11-04T20:09:37.856Z,26.13
2022-11-04T20:12:24.029Z,29.67
2022-11-04T20:14:55.050Z,32.33
2022-11-04T20:17:23.197Z,33.83
2022-11-04T20:19:50.920Z,32.87
2022-11-04T20:22:18.323Z,35.90
2022-11-04T20:24:45.875Z,33.23
2022-11-04T20:27:15.428Z,32.73
2022-11-04T20:29:43.368Z,29.83
2022-11-04T20:32:10.808Z,25.80
2022-11-04T20:34:38.772Z,29.43
2022-11-04T20:37:06.251Z,23.43
2022-11-04T20:39:33.644Z,26.67
2022-11-04T20:42:01.073Z,25.33
2022-11-04T20:44:28.493Z,23.63
2022-11-04T20:46:55.895Z,22.83
2022-11-04T20:49:23.320Z,22.93
2022-11-04T20:51:55.158Z,22.50
2022-11-04T20:54:23.214Z,20.67
2022-11-04T20:56:50.702Z,20.03
2022-11-04T20:59:18.553Z,19.47
2022-11-04T21:01:48.464Z,20.43
2022-11-04T21:04:19.638Z,19.40
2022-11-04T21:06:49.199Z,19.77
2022-11-04T21:09:19.634Z,19.53
2022-11-04T21:11:47.644Z,18.43
2022-11-04T21:14:19.749Z,17.40
2022-11-04T21:16:47.947Z,17.73
2022-11-04T21:19:16.268Z,15.30
2022-11-04T21:21:44.700Z,15.00
2022-11-04T21:24:15.010Z,14.33
2022-11-04T21:26:43.937Z,14.27
2022-11-04T21:29:15.114Z,14.90
2022-11-04T21:31:43.606Z,13.63
2022-11-04T21:34:11.230Z,13.07
2022-11-04T21:36:39.582Z,14.17
2022-11-04T21:39:07.622Z,14.40
2022-11-04T21:41:37.443Z,16.67
2022-11-04T21:44:08.811Z,15.40
2022-11-04T21:46:36.850Z,14.23
2022-11-04T21:49:05.114Z,16.20
2022-11-04T21:51:34.959Z,16.20
2022-11-04T21:54:07.199Z,13.33
2022-11-04T21:56:35.483Z,13.53
2022-11-04T21:59:03.896Z,14.10
2022-11-04T22:01:32.671Z,14.50
2022-11-04T22:04:02.164Z,14.23
2022-11-04T22:06:35.283Z,15.93
2022-11-04T22:09:09.245Z,15.57
2022-11-04T22:11:39.122Z,16.33
2022-11-04T22:14:08.864Z,18.17
2022-11-04T22:16:39.196Z,18.73
2022-11-04T22:19:10.588Z,15.97
2022-11-04T22:21:44.895Z,17.17
2022-11-04T22:24:14.770Z,18.10
2022-11-04T22:26:42.714Z,18.27
2022-11-04T22:29:10.828Z,16.70
2022-11-04T22:31:42.908Z,16.47
2022-11-04T22:34:10.764Z,17.37
2022-11-04T22:36:38.487Z,16.03
2022-11-04T22:39:08.289Z,17.13
2022-11-04T22:41:37.966Z,17.87
2022-11-04T22:44:05.416Z,18.30
2022-11-04T22:46:35.348Z,18.97
2022-11-04T22:49:02.813Z,18.60
2022-11-04T22:51:31.628Z,17.40
2022-11-04T22:54:06.387Z,16.50
2022-11-04T22:56:36.258Z,17.03
2022-11-04T22:59:04.496Z,15.60
2022-11-04T23:01:33.266Z,14.47
2022-11-04T23:04:00.896Z,14.63
2022-11-04T23:06:28.414Z,13.43
2022-11-04T23:09:00.117Z,13.23
2022-11-04T23:11:48.438Z,12.97
2022-11-04T23:14:38.086Z,12.50
2022-11-04T23:17:41.169Z,14.67
2022-11-04T23:20:15.781Z,16.23
2022-11-04T23:23:01.969Z,15.57
2022-11-04T23:25:29.496Z,14.47
2022-11-04T23:28:15.357Z,15.70
2022-11-04T23:30:46.707Z,15.73
2022-11-04T23:33:16.151Z,15.90
2022-11-04T23:36:03.096Z,16.13
2022-11-04T23:38:31.278Z,17.67
2022-11-04T23:41:24.728Z,18.77
2022-11-04T23:43:52.481Z,20.93
2022-11-04T23:46:43.100Z,21.60
2022-11-04T23:49:32.479Z,22.77
2022-11-04T23:52:18.381Z,23.17
2022-11-04T23:55:04.260Z,23.00
2022-11-04T23:57:50.131Z,22.17
